sensor_id;sensor_type;location;lat;lon;timestamp;temperature;humidity
39427;DHT22;25938;48.470;1.486;2022-09-20T00:01:22;19.60;51.80
39427;DHT22;25938;48.470;1.486;2022-09-20T00:03:50;19.60;51.50
39427;DHT22;25938;48.470;1.486;2022-09-20T00:06:20;19.60;52.00
39427;DHT22;25938;48.470;1.486;2022-09-20T00:08:46;19.60;51.90
39427;DHT22;25938;48.470;1.486;2022-09-20T00:11:16;19.60;52.00
39427;DHT22;25938;48.470;1.486;2022-09-20T00:13:44;19.60;52.00
39427;DHT22;25938;48.470;1.486;2022-09-20T00:16:15;19.50;52.00
39427;DHT22;25938;48.470;1.486;2022-09-20T00:18:42;19.60;52.00
39427;DHT22;25938;48.470;1.486;2022-09-20T00:21:15;19.60;52.10
39427;DHT22;25938;48.470;1.486;2022-09-20T00:23:41;19.60;51.90
39427;DHT22;25938;48.470;1.486;2022-09-20T00:26:07;19.50;52.10
39427;DHT22;25938;48.470;1.486;2022-09-20T00:28:32;19.50;52.10
39427;DHT22;25938;48.470;1.486;2022-09-20T00:30:59;19.50;52.10
39427;DHT22;25938;48.470;1.486;2022-09-20T00:33:25;19.50;52.10
39427;DHT22;25938;48.470;1.486;2022-09-20T00:36:14;19.50;52.00
39427;DHT22;25938;48.470;1.486;2022-09-20T00:38:40;19.50;52.10
39427;DHT22;25938;48.470;1.486;2022-09-20T00:41:05;19.50;52.10
39427;DHT22;25938;48.470;1.486;2022-09-20T00:43:40;19.50;52.20
39427;DHT22;25938;48.470;1.486;2022-09-20T00:46:22;19.50;52.00
39427;DHT22;25938;48.470;1.486;2022-09-20T00:48:52;19.50;52.00
39427;DHT22;25938;48.470;1.486;2022-09-20T00:51:26;19.50;52.30
39427;DHT22;25938;48.470;1.486;2022-09-20T00:53:53;19.40;52.00
39427;DHT22;25938;48.470;1.486;2022-09-20T00:56:29;19.40;52.20
39427;DHT22;25938;48.470;1.486;2022-09-20T00:59:11;19.40;51.90
39427;DHT22;25938;48.470;1.486;2022-09-20T01:01:40;19.40;52.50
39427;DHT22;25938;48.470;1.486;2022-09-20T01:04:07;19.40;52.20
39427;DHT22;25938;48.470;1.486;2022-09-20T01:06:33;19.40;52.10
39427;DHT22;25938;48.470;1.486;2022-09-20T01:09:01;19.40;52.10
39427;DHT22;25938;48.470;1.486;2022-09-20T01:11:29;19.40;52.00
39427;DHT22;25938;48.470;1.486;2022-09-20T01:13:55;19.40;52.00
39427;DHT22;25938;48.470;1.486;2022-09-20T01:16:21;19.40;52.10
39427;DHT22;25938;48.470;1.486;2022-09-20T01:18:48;19.40;52.00
39427;DHT22;25938;48.470;1.486;2022-09-20T01:21:15;19.40;52.10
39427;DHT22;25938;48.470;1.486;2022-09-20T01:24:04;19.30;52.00
39427;DHT22;25938;48.470;1.486;2022-09-20T01:31:52;19.30;51.90
39427;DHT22;25938;48.470;1.486;2022-09-20T01:34:36;19.30;51.80
39427;DHT22;25938;48.470;1.486;2022-09-20T01:37:18;19.30;51.70
39427;DHT22;25938;48.470;1.486;2022-09-20T01:39:55;19.30;52.10
39427;DHT22;25938;48.470;1.486;2022-09-20T01:42:30;19.30;52.10
39427;DHT22;25938;48.470;1.486;2022-09-20T01:45:00;19.30;52.00
39427;DHT22;25938;48.470;1.486;2022-09-20T01:58:50;19.30;52.20
39427;DHT22;25938;48.470;1.486;2022-09-20T02:01:30;19.20;51.60
39427;DHT22;25938;48.470;1.486;2022-09-20T02:04:08;19.20;52.10
39427;DHT22;25938;48.470;1.486;2022-09-20T02:12:25;19.20;51.60
39427;DHT22;25938;48.470;1.486;2022-09-20T02:15:24;19.20;52.00
39427;DHT22;25938;48.470;1.486;2022-09-20T02:23:28;19.20;51.70
39427;DHT22;25938;48.470;1.486;2022-09-20T02:31:21;19.10;51.40
39427;DHT22;25938;48.470;1.486;2022-09-20T02:42:20;19.10;51.20
39427;DHT22;25938;48.470;1.486;2022-09-20T02:47:39;19.10;52.10
39427;DHT22;25938;48.470;1.486;2022-09-20T03:03:55;19.00;51.50
39427;DHT22;25938;48.470;1.486;2022-09-20T03:06:33;19.00;51.30
39427;DHT22;25938;48.470;1.486;2022-09-20T03:17:48;19.00;51.30
39427;DHT22;25938;48.470;1.486;2022-09-20T03:20:38;19.00;51.40
39427;DHT22;25938;48.470;1.486;2022-09-20T03:37:14;18.90;51.50
39427;DHT22;25938;48.470;1.486;2022-09-20T03:42:28;18.90;51.50
39427;DHT22;25938;48.470;1.486;2022-09-20T03:45:25;18.90;51.20
39427;DHT22;25938;48.470;1.486;2022-09-20T04:15:51;18.80;50.60
39427;DHT22;25938;48.470;1.486;2022-09-20T04:20:56;18.90;51.30
39427;DHT22;25938;48.470;1.486;2022-09-20T04:26:03;18.80;51.00
39427;DHT22;25938;48.470;1.486;2022-09-20T04:28:42;18.80;50.90
39427;DHT22;25938;48.470;1.486;2022-09-20T04:31:51;18.80;50.50
39427;DHT22;25938;48.470;1.486;2022-09-20T04:34:32;18.70;50.50
39427;DHT22;25938;48.470;1.486;2022-09-20T04:37:36;18.80;50.40
39427;DHT22;25938;48.470;1.486;2022-09-20T04:43:23;18.70;50.40
39427;DHT22;25938;48.470;1.486;2022-09-20T04:57:07;18.70;50.70
39427;DHT22;25938;48.470;1.486;2022-09-20T05:00:06;18.70;50.20
39427;DHT22;25938;48.470;1.486;2022-09-20T05:11:16;18.80;55.90
39427;DHT22;25938;48.470;1.486;2022-09-20T05:30:40;18.60;49.70
39427;DHT22;25938;48.470;1.486;2022-09-20T05:33:31;18.60;50.40
39427;DHT22;25938;48.470;1.486;2022-09-20T05:38:49;18.60;50.40
39427;DHT22;25938;48.470;1.486;2022-09-20T05:55:25;18.60;50.20
39427;DHT22;25938;48.470;1.486;2022-09-20T06:01:03;18.60;50.20
39427;DHT22;25938;48.470;1.486;2022-09-20T06:03:44;18.60;50.30
39427;DHT22;25938;48.470;1.486;2022-09-20T06:06:28;18.60;50.20
39427;DHT22;25938;48.470;1.486;2022-09-20T06:14:39;18.60;50.50
39427;DHT22;25938;48.470;1.486;2022-09-20T06:19:49;18.60;50.50
39427;DHT22;25938;48.470;1.486;2022-09-20T06:22:33;18.50;50.30
39427;DHT22;25938;48.470;1.486;2022-09-20T06:28:15;18.50;50.40
39427;DHT22;25938;48.470;1.486;2022-09-20T06:30:46;18.50;50.30
39427;DHT22;25938;48.470;1.486;2022-09-20T06:35:45;18.50;50.70
39427;DHT22;25938;48.470;1.486;2022-09-20T06:41:38;18.50;50.70
39427;DHT22;25938;48.470;1.486;2022-09-20T06:44:05;18.50;51.10
39427;DHT22;25938;48.470;1.486;2022-09-20T06:46:33;18.50;51.20
39427;DHT22;25938;48.470;1.486;2022-09-20T06:49:00;18.50;51.30
39427;DHT22;25938;48.470;1.486;2022-09-20T06:51:28;18.50;51.50
39427;DHT22;25938;48.470;1.486;2022-09-20T06:53:58;18.50;51.60
39427;DHT22;25938;48.470;1.486;2022-09-20T06:56:27;18.50;51.80
39427;DHT22;25938;48.470;1.486;2022-09-20T06:58:54;18.50;51.90
39427;DHT22;25938;48.470;1.486;2022-09-20T07:01:20;18.50;52.10
39427;DHT22;25938;48.470;1.486;2022-09-20T07:03:46;18.60;52.20
39427;DHT22;25938;48.470;1.486;2022-09-20T07:06:12;18.60;52.30
39427;DHT22;25938;48.470;1.486;2022-09-20T07:08:40;18.60;52.50
39427;DHT22;25938;48.470;1.486;2022-09-20T07:11:13;18.60;52.60
39427;DHT22;25938;48.470;1.486;2022-09-20T07:13:50;18.60;52.80
39427;DHT22;25938;48.470;1.486;2022-09-20T07:16:17;18.60;52.90
39427;DHT22;25938;48.470;1.486;2022-09-20T07:18:43;18.60;53.00
39427;DHT22;25938;48.470;1.486;2022-09-20T07:21:13;18.60;53.10
39427;DHT22;25938;48.470;1.486;2022-09-20T07:23:39;18.60;53.20
39427;DHT22;25938;48.470;1.486;2022-09-20T07:26:05;18.60;53.20
39427;DHT22;25938;48.470;1.486;2022-09-20T07:28:33;18.60;53.30
39427;DHT22;25938;48.470;1.486;2022-09-20T07:30:59;18.60;53.40
39427;DHT22;25938;48.470;1.486;2022-09-20T07:33:25;18.60;53.40
39427;DHT22;25938;48.470;1.486;2022-09-20T07:35:51;18.60;53.60
39427;DHT22;25938;48.470;1.486;2022-09-20T07:38:20;18.60;53.60
39427;DHT22;25938;48.470;1.486;2022-09-20T07:40:56;18.60;53.70
39427;DHT22;25938;48.470;1.486;2022-09-20T07:43:23;18.60;53.70
39427;DHT22;25938;48.470;1.486;2022-09-20T07:45:54;18.60;53.70
39427;DHT22;25938;48.470;1.486;2022-09-20T07:48:25;18.60;53.80
39427;DHT22;25938;48.470;1.486;2022-09-20T07:50:57;18.60;53.80
39427;DHT22;25938;48.470;1.486;2022-09-20T07:53:23;18.60;53.80
39427;DHT22;25938;48.470;1.486;2022-09-20T07:58:32;18.60;54.10
39427;DHT22;25938;48.470;1.486;2022-09-20T08:01:00;18.50;54.20
39427;DHT22;25938;48.470;1.486;2022-09-20T08:03:28;18.50;54.40
39427;DHT22;25938;48.470;1.486;2022-09-20T08:05:59;18.50;54.50
39427;DHT22;25938;48.470;1.486;2022-09-20T08:08:25;18.50;54.70
39427;DHT22;25938;48.470;1.486;2022-09-20T08:10:50;18.50;54.60
39427;DHT22;25938;48.470;1.486;2022-09-20T08:13:16;18.50;54.70
39427;DHT22;25938;48.470;1.486;2022-09-20T08:15:42;18.50;54.80
39427;DHT22;25938;48.470;1.486;2022-09-20T08:18:08;18.50;54.80
39427;DHT22;25938;48.470;1.486;2022-09-20T08:20:35;18.60;55.00
39427;DHT22;25938;48.470;1.486;2022-09-20T08:23:02;18.60;55.00
39427;DHT22;25938;48.470;1.486;2022-09-20T08:25:28;18.60;55.00
39427;DHT22;25938;48.470;1.486;2022-09-20T08:27:54;18.60;55.00
39427;DHT22;25938;48.470;1.486;2022-09-20T08:30:20;18.60;55.00
39427;DHT22;25938;48.470;1.486;2022-09-20T08:32:45;18.60;55.00
39427;DHT22;25938;48.470;1.486;2022-09-20T08:35:11;18.60;55.00
39427;DHT22;25938;48.470;1.486;2022-09-20T08:37:39;18.60;55.10
39427;DHT22;25938;48.470;1.486;2022-09-20T08:40:05;18.60;55.00
39427;DHT22;25938;48.470;1.486;2022-09-20T08:42:33;18.60;55.10
39427;DHT22;25938;48.470;1.486;2022-09-20T08:45:04;18.60;55.00
39427;DHT22;25938;48.470;1.486;2022-09-20T08:47:33;18.70;55.10
39427;DHT22;25938;48.470;1.486;2022-09-20T08:50:03;18.70;55.20
39427;DHT22;25938;48.470;1.486;2022-09-20T08:52:32;18.70;55.20
39427;DHT22;25938;48.470;1.486;2022-09-20T08:55:00;18.70;55.30
39427;DHT22;25938;48.470;1.486;2022-09-20T08:57:29;18.60;55.50
39427;DHT22;25938;48.470;1.486;2022-09-20T08:59:58;18.50;55.60
39427;DHT22;25938;48.470;1.486;2022-09-20T09:02:24;18.50;55.60
39427;DHT22;25938;48.470;1.486;2022-09-20T09:04:49;18.50;55.60
39427;DHT22;25938;48.470;1.486;2022-09-20T09:07:19;18.50;55.60
39427;DHT22;25938;48.470;1.486;2022-09-20T09:09:46;18.60;55.60
39427;DHT22;25938;48.470;1.486;2022-09-20T09:12:25;18.60;55.50
39427;DHT22;25938;48.470;1.486;2022-09-20T09:14:57;18.60;55.50
39427;DHT22;25938;48.470;1.486;2022-09-20T09:17:28;18.70;55.50
39427;DHT22;25938;48.470;1.486;2022-09-20T09:19:57;18.60;55.50
39427;DHT22;25938;48.470;1.486;2022-09-20T09:25:09;18.60;55.80
39427;DHT22;25938;48.470;1.486;2022-09-20T09:30:34;18.60;55.60
39427;DHT22;25938;48.470;1.486;2022-09-20T09:36:04;18.60;55.50
39427;DHT22;25938;48.470;1.486;2022-09-20T09:38:37;18.60;55.30
39427;DHT22;25938;48.470;1.486;2022-09-20T09:41:06;18.70;55.30
39427;DHT22;25938;48.470;1.486;2022-09-20T09:43:36;18.70;55.20
39427;DHT22;25938;48.470;1.486;2022-09-20T09:48:43;18.70;55.00
39427;DHT22;25938;48.470;1.486;2022-09-20T09:51:18;18.70;55.10
39427;DHT22;25938;48.470;1.486;2022-09-20T09:53:46;18.70;55.00
39427;DHT22;25938;48.470;1.486;2022-09-20T10:07:34;18.70;54.90
39427;DHT22;25938;48.470;1.486;2022-09-20T10:15:59;18.80;54.90
39427;DHT22;25938;48.470;1.486;2022-09-20T10:36:57;18.80;55.00
39427;DHT22;25938;48.470;1.486;2022-09-20T10:47:37;18.80;54.70
39427;DHT22;25938;48.470;1.486;2022-09-20T10:50:35;18.80;54.50
39427;DHT22;25938;48.470;1.486;2022-09-20T11:01:35;18.80;54.60
39427;DHT22;25938;48.470;1.486;2022-09-20T11:09:25;18.80;54.40
39427;DHT22;25938;48.470;1.486;2022-09-20T11:12:46;18.90;54.50
39427;DHT22;25938;48.470;1.486;2022-09-20T11:14:56;18.90;54.50
39427;DHT22;25938;48.470;1.486;2022-09-20T11:17:37;18.80;54.50
39427;DHT22;25938;48.470;1.486;2022-09-20T11:23:17;18.90;54.30
39427;DHT22;25938;48.470;1.486;2022-09-20T11:25:49;18.90;54.20
39427;DHT22;25938;48.470;1.486;2022-09-20T11:28:30;18.90;54.30
39427;DHT22;25938;48.470;1.486;2022-09-20T11:31:03;18.90;54.30
39427;DHT22;25938;48.470;1.486;2022-09-20T11:33:41;19.00;54.50
39427;DHT22;25938;48.470;1.486;2022-09-20T11:36:16;18.90;54.30
39427;DHT22;25938;48.470;1.486;2022-09-20T11:39:04;18.90;54.30
39427;DHT22;25938;48.470;1.486;2022-09-20T11:41:33;18.90;54.20
39427;DHT22;25938;48.470;1.486;2022-09-20T11:44:15;19.00;54.40
39427;DHT22;25938;48.470;1.486;2022-09-20T11:46:50;18.90;54.30
39427;DHT22;25938;48.470;1.486;2022-09-20T11:49:41;19.00;54.10
39427;DHT22;25938;48.470;1.486;2022-09-20T11:57:36;19.00;54.10
39427;DHT22;25938;48.470;1.486;2022-09-20T12:00:04;19.00;54.30
39427;DHT22;25938;48.470;1.486;2022-09-20T12:02:49;19.00;54.30
39427;DHT22;25938;48.470;1.486;2022-09-20T12:06:02;19.00;54.30
39427;DHT22;25938;48.470;1.486;2022-09-20T12:08:40;19.00;54.10
39427;DHT22;25938;48.470;1.486;2022-09-20T12:11:12;19.00;53.90
39427;DHT22;25938;48.470;1.486;2022-09-20T12:13:40;19.00;53.90
39427;DHT22;25938;48.470;1.486;2022-09-20T12:21:20;19.00;54.00
39427;DHT22;25938;48.470;1.486;2022-09-20T12:28:38;19.00;53.90
39427;DHT22;25938;48.470;1.486;2022-09-20T12:39:20;19.10;54.10
39427;DHT22;25938;48.470;1.486;2022-09-20T12:41:56;19.10;54.20
39427;DHT22;25938;48.470;1.486;2022-09-20T12:52:51;19.10;54.30
39427;DHT22;25938;48.470;1.486;2022-09-20T13:03:31;19.10;54.20
39427;DHT22;25938;48.470;1.486;2022-09-20T13:11:11;19.10;54.50
39427;DHT22;25938;48.470;1.486;2022-09-20T13:13:45;19.10;54.60
39427;DHT22;25938;48.470;1.486;2022-09-20T13:16:23;19.10;54.70
39427;DHT22;25938;48.470;1.486;2022-09-20T13:19:10;19.10;54.80
39427;DHT22;25938;48.470;1.486;2022-09-20T13:21:46;19.20;54.70
39427;DHT22;25938;48.470;1.486;2022-09-20T13:24:17;19.10;54.70
39427;DHT22;25938;48.470;1.486;2022-09-20T13:26:45;19.20;54.80
39427;DHT22;25938;48.470;1.486;2022-09-20T13:29:32;19.20;54.90
39427;DHT22;25938;48.470;1.486;2022-09-20T13:37:36;19.20;54.40
39427;DHT22;25938;48.470;1.486;2022-09-20T13:40:04;19.20;54.40
39427;DHT22;25938;48.470;1.486;2022-09-20T13:42:32;19.20;54.60
39427;DHT22;25938;48.470;1.486;2022-09-20T13:45:01;19.20;54.70
39427;DHT22;25938;48.470;1.486;2022-09-20T13:47:29;19.20;54.60
39427;DHT22;25938;48.470;1.486;2022-09-20T13:52:48;19.30;54.70
39427;DHT22;25938;48.470;1.486;2022-09-20T13:55:31;19.20;54.60
39427;DHT22;25938;48.470;1.486;2022-09-20T14:00:55;19.30;54.70
39427;DHT22;25938;48.470;1.486;2022-09-20T14:03:23;19.30;54.50
39427;DHT22;25938;48.470;1.486;2022-09-20T14:05:53;19.30;54.40
39427;DHT22;25938;48.470;1.486;2022-09-20T14:08:29;19.30;54.40
39427;DHT22;25938;48.470;1.486;2022-09-20T14:13:47;19.30;54.50
39427;DHT22;25938;48.470;1.486;2022-09-20T14:16:15;19.30;54.60
39427;DHT22;25938;48.470;1.486;2022-09-20T14:18:42;19.30;54.80
39427;DHT22;25938;48.470;1.486;2022-09-20T14:21:10;19.30;54.70
39427;DHT22;25938;48.470;1.486;2022-09-20T14:26:30;19.30;54.60
39427;DHT22;25938;48.470;1.486;2022-09-20T14:32:04;19.30;54.60
39427;DHT22;25938;48.470;1.486;2022-09-20T14:34:35;19.40;54.80
39427;DHT22;25938;48.470;1.486;2022-09-20T14:37:08;19.40;54.90
39427;DHT22;25938;48.470;1.486;2022-09-20T14:39:47;19.30;54.80
39427;DHT22;25938;48.470;1.486;2022-09-20T14:42:34;19.40;54.90
39427;DHT22;25938;48.470;1.486;2022-09-20T14:45:05;19.40;54.80
39427;DHT22;25938;48.470;1.486;2022-09-20T14:47:48;19.40;55.00
39427;DHT22;25938;48.470;1.486;2022-09-20T14:50:29;19.40;54.80
39427;DHT22;25938;48.470;1.486;2022-09-20T14:58:31;19.40;54.90
39427;DHT22;25938;48.470;1.486;2022-09-20T15:01:04;19.40;54.90
39427;DHT22;25938;48.470;1.486;2022-09-20T15:03:39;19.40;54.90
39427;DHT22;25938;48.470;1.486;2022-09-20T15:06:09;19.40;54.90
39427;DHT22;25938;48.470;1.486;2022-09-20T15:08:35;19.40;54.90
39427;DHT22;25938;48.470;1.486;2022-09-20T15:11:01;19.40;55.00
39427;DHT22;25938;48.470;1.486;2022-09-20T15:13:28;19.40;55.10
39427;DHT22;25938;48.470;1.486;2022-09-20T15:15:54;19.50;55.10
39427;DHT22;25938;48.470;1.486;2022-09-20T15:18:26;19.50;55.10
39427;DHT22;25938;48.470;1.486;2022-09-20T15:20:53;19.50;55.10
39427;DHT22;25938;48.470;1.486;2022-09-20T15:23:20;19.50;55.10
39427;DHT22;25938;48.470;1.486;2022-09-20T15:25:48;19.50;55.10
39427;DHT22;25938;48.470;1.486;2022-09-20T15:28:15;19.50;55.00
39427;DHT22;25938;48.470;1.486;2022-09-20T15:30:42;19.50;55.00
39427;DHT22;25938;48.470;1.486;2022-09-20T15:33:09;19.50;55.20
39427;DHT22;25938;48.470;1.486;2022-09-20T15:35:34;19.50;55.30
39427;DHT22;25938;48.470;1.486;2022-09-20T15:38:00;19.50;55.50
39427;DHT22;25938;48.470;1.486;2022-09-20T15:40:26;19.50;55.70
39427;DHT22;25938;48.470;1.486;2022-09-20T15:42:56;19.50;55.90
39427;DHT22;25938;48.470;1.486;2022-09-20T15:45:24;19.50;55.90
39427;DHT22;25938;48.470;1.486;2022-09-20T15:47:52;19.50;55.90
39427;DHT22;25938;48.470;1.486;2022-09-20T15:50:20;19.60;56.10
39427;DHT22;25938;48.470;1.486;2022-09-20T15:52:49;19.60;56.30
39427;DHT22;25938;48.470;1.486;2022-09-20T15:55:16;19.60;56.40
39427;DHT22;25938;48.470;1.486;2022-09-20T15:57:42;19.50;56.50
39427;DHT22;25938;48.470;1.486;2022-09-20T16:00:08;19.60;56.60
39427;DHT22;25938;48.470;1.486;2022-09-20T16:02:34;19.60;57.20
39427;DHT22;25938;48.470;1.486;2022-09-20T16:05:00;19.60;56.50
39427;DHT22;25938;48.470;1.486;2022-09-20T16:07:26;19.60;56.50
39427;DHT22;25938;48.470;1.486;2022-09-20T16:09:55;19.50;56.40
39427;DHT22;25938;48.470;1.486;2022-09-20T16:12:22;19.60;56.60
39427;DHT22;25938;48.470;1.486;2022-09-20T16:14:49;19.60;56.60
39427;DHT22;25938;48.470;1.486;2022-09-20T16:17:15;19.60;56.50
39427;DHT22;25938;48.470;1.486;2022-09-20T16:19:41;19.60;56.40
39427;DHT22;25938;48.470;1.486;2022-09-20T16:22:08;19.60;56.60
39427;DHT22;25938;48.470;1.486;2022-09-20T16:24:35;19.60;56.80
39427;DHT22;25938;48.470;1.486;2022-09-20T16:27:03;19.60;57.10
39427;DHT22;25938;48.470;1.486;2022-09-20T16:29:31;19.60;57.30
39427;DHT22;25938;48.470;1.486;2022-09-20T16:31:57;19.60;57.10
39427;DHT22;25938;48.470;1.486;2022-09-20T16:34:29;19.60;57.20
39427;DHT22;25938;48.470;1.486;2022-09-20T16:37:15;19.60;57.30
39427;DHT22;25938;48.470;1.486;2022-09-20T16:39:41;19.60;57.30
39427;DHT22;25938;48.470;1.486;2022-09-20T16:42:08;19.60;57.10
39427;DHT22;25938;48.470;1.486;2022-09-20T16:44:38;19.60;57.00
39427;DHT22;25938;48.470;1.486;2022-09-20T16:47:06;19.60;57.10
39427;DHT22;25938;48.470;1.486;2022-09-20T16:49:33;19.70;57.20
39427;DHT22;25938;48.470;1.486;2022-09-20T16:52:02;19.70;57.20
39427;DHT22;25938;48.470;1.486;2022-09-20T16:54:28;19.70;57.30
39427;DHT22;25938;48.470;1.486;2022-09-20T16:56:54;19.60;57.30
39427;DHT22;25938;48.470;1.486;2022-09-20T16:59:20;19.70;57.40
39427;DHT22;25938;48.470;1.486;2022-09-20T17:01:46;19.70;57.40
39427;DHT22;25938;48.470;1.486;2022-09-20T17:04:13;19.70;57.40
39427;DHT22;25938;48.470;1.486;2022-09-20T17:06:40;19.70;57.50
39427;DHT22;25938;48.470;1.486;2022-09-20T17:09:08;19.60;57.50
39427;DHT22;25938;48.470;1.486;2022-09-20T17:11:39;19.70;57.60
39427;DHT22;25938;48.470;1.486;2022-09-20T17:14:06;19.70;57.70
39427;DHT22;25938;48.470;1.486;2022-09-20T17:16:35;19.70;57.60
39427;DHT22;25938;48.470;1.486;2022-09-20T17:19:03;19.70;57.60
39427;DHT22;25938;48.470;1.486;2022-09-20T17:21:33;19.70;57.70
39427;DHT22;25938;48.470;1.486;2022-09-20T17:24:00;19.70;57.70
39427;DHT22;25938;48.470;1.486;2022-09-20T17:26:33;19.70;57.70
39427;DHT22;25938;48.470;1.486;2022-09-20T17:29:00;19.70;57.70
39427;DHT22;25938;48.470;1.486;2022-09-20T17:31:28;19.70;57.60
39427;DHT22;25938;48.470;1.486;2022-09-20T17:33:57;19.70;57.60
39427;DHT22;25938;48.470;1.486;2022-09-20T17:36:27;19.70;57.60
39427;DHT22;25938;48.470;1.486;2022-09-20T17:38:55;19.70;57.60
39427;DHT22;25938;48.470;1.486;2022-09-20T17:41:21;19.70;57.60
39427;DHT22;25938;48.470;1.486;2022-09-20T17:43:52;19.70;57.60
39427;DHT22;25938;48.470;1.486;2022-09-20T17:46:26;19.70;57.70
39427;DHT22;25938;48.470;1.486;2022-09-20T17:49:02;19.70;57.80
39427;DHT22;25938;48.470;1.486;2022-09-20T17:51:36;19.70;57.80
39427;DHT22;25938;48.470;1.486;2022-09-20T17:54:02;19.70;57.80
39427;DHT22;25938;48.470;1.486;2022-09-20T17:56:28;19.70;57.70
39427;DHT22;25938;48.470;1.486;2022-09-20T17:58:59;19.70;57.80
39427;DHT22;25938;48.470;1.486;2022-09-20T18:01:27;19.70;57.90
39427;DHT22;25938;48.470;1.486;2022-09-20T18:03:54;19.70;57.90
39427;DHT22;25938;48.470;1.486;2022-09-20T18:08:55;19.70;58.10
39427;DHT22;25938;48.470;1.486;2022-09-20T18:11:26;19.70;58.10
39427;DHT22;25938;48.470;1.486;2022-09-20T18:13:52;19.70;58.20
39427;DHT22;25938;48.470;1.486;2022-09-20T18:16:18;19.70;58.20
39427;DHT22;25938;48.470;1.486;2022-09-20T18:18:45;19.80;58.30
39427;DHT22;25938;48.470;1.486;2022-09-20T18:21:23;19.70;58.30
39427;DHT22;25938;48.470;1.486;2022-09-20T18:23:50;19.70;58.40
39427;DHT22;25938;48.470;1.486;2022-09-20T18:26:24;19.70;58.40
39427;DHT22;25938;48.470;1.486;2022-09-20T18:28:59;19.70;58.50
39427;DHT22;25938;48.470;1.486;2022-09-20T18:31:36;19.70;58.70
39427;DHT22;25938;48.470;1.486;2022-09-20T18:34:03;19.70;58.70
39427;DHT22;25938;48.470;1.486;2022-09-20T18:36:31;19.60;58.70
39427;DHT22;25938;48.470;1.486;2022-09-20T18:38:57;19.70;58.80
39427;DHT22;25938;48.470;1.486;2022-09-20T18:41:26;19.60;58.80
39427;DHT22;25938;48.470;1.486;2022-09-20T18:43:53;19.60;58.80
39427;DHT22;25938;48.470;1.486;2022-09-20T18:46:19;19.70;58.90
39427;DHT22;25938;48.470;1.486;2022-09-20T18:48:48;19.60;58.90
39427;DHT22;25938;48.470;1.486;2022-09-20T18:51:14;19.70;59.00
39427;DHT22;25938;48.470;1.486;2022-09-20T18:53:41;19.70;58.90
39427;DHT22;25938;48.470;1.486;2022-09-20T18:56:51;19.70;58.90
39427;DHT22;25938;48.470;1.486;2022-09-20T18:59:21;19.70;58.90
39427;DHT22;25938;48.470;1.486;2022-09-20T19:04:50;19.70;59.10
39427;DHT22;25938;48.470;1.486;2022-09-20T19:07:57;19.70;59.20
39427;DHT22;25938;48.470;1.486;2022-09-20T19:16:15;19.70;59.30
39427;DHT22;25938;48.470;1.486;2022-09-20T19:26:38;19.70;59.30
39427;DHT22;25938;48.470;1.486;2022-09-20T19:29:17;19.70;59.10
39427;DHT22;25938;48.470;1.486;2022-09-20T19:31:46;19.70;59.10
39427;DHT22;25938;48.470;1.486;2022-09-20T19:34:19;19.70;59.10
39427;DHT22;25938;48.470;1.486;2022-09-20T19:39:41;19.70;59.10
39427;DHT22;25938;48.470;1.486;2022-09-20T19:42:27;19.70;59.00
39427;DHT22;25938;48.470;1.486;2022-09-20T19:50:28;19.70;59.00
39427;DHT22;25938;48.470;1.486;2022-09-20T19:52:58;19.70;59.00
39427;DHT22;25938;48.470;1.486;2022-09-20T19:55:26;19.60;59.00
39427;DHT22;25938;48.470;1.486;2022-09-20T19:57:52;19.70;59.00
39427;DHT22;25938;48.470;1.486;2022-09-20T20:00:19;19.60;58.90
39427;DHT22;25938;48.470;1.486;2022-09-20T20:02:46;19.60;58.90
39427;DHT22;25938;48.470;1.486;2022-09-20T20:05:13;19.70;58.90
39427;DHT22;25938;48.470;1.486;2022-09-20T20:11:19;19.70;58.80
39427;DHT22;25938;48.470;1.486;2022-09-20T20:16:43;19.70;58.80
39427;DHT22;25938;48.470;1.486;2022-09-20T20:19:30;19.70;58.80
39427;DHT22;25938;48.470;1.486;2022-09-20T20:27:12;19.60;58.60
39427;DHT22;25938;48.470;1.486;2022-09-20T20:29:37;19.60;58.60
39427;DHT22;25938;48.470;1.486;2022-09-20T20:32:03;19.70;58.60
39427;DHT22;25938;48.470;1.486;2022-09-20T20:34:29;19.70;58.60
39427;DHT22;25938;48.470;1.486;2022-09-20T20:36:54;19.60;58.60
39427;DHT22;25938;48.470;1.486;2022-09-20T20:39:25;19.60;58.60
39427;DHT22;25938;48.470;1.486;2022-09-20T20:41:50;19.60;58.50
39427;DHT22;25938;48.470;1.486;2022-09-20T20:44:20;19.70;58.50
39427;DHT22;25938;48.470;1.486;2022-09-20T20:46:46;19.70;58.50
39427;DHT22;25938;48.470;1.486;2022-09-20T20:49:12;19.70;58.40
39427;DHT22;25938;48.470;1.486;2022-09-20T20:51:38;19.70;58.40
39427;DHT22;25938;48.470;1.486;2022-09-20T20:54:04;19.60;58.40
39427;DHT22;25938;48.470;1.486;2022-09-20T20:56:30;19.60;58.40
39427;DHT22;25938;48.470;1.486;2022-09-20T20:58:57;19.60;58.40
39427;DHT22;25938;48.470;1.486;2022-09-20T21:01:30;19.60;58.40
39427;DHT22;25938;48.470;1.486;2022-09-20T21:03:57;19.60;58.40
39427;DHT22;25938;48.470;1.486;2022-09-20T21:06:28;19.60;58.50
39427;DHT22;25938;48.470;1.486;2022-09-20T21:08:55;19.60;58.50
39427;DHT22;25938;48.470;1.486;2022-09-20T21:11:29;19.60;58.40
39427;DHT22;25938;48.470;1.486;2022-09-20T21:13:57;19.60;58.30
39427;DHT22;25938;48.470;1.486;2022-09-20T21:16:25;19.60;58.20
39427;DHT22;25938;48.470;1.486;2022-09-20T21:18:51;19.60;58.30
39427;DHT22;25938;48.470;1.486;2022-09-20T21:24:05;19.60;58.40
39427;DHT22;25938;48.470;1.486;2022-09-20T21:26:32;19.50;58.30
39427;DHT22;25938;48.470;1.486;2022-09-20T21:29:10;19.60;58.40
39427;DHT22;25938;48.470;1.486;2022-09-20T21:31:41;19.60;58.50
39427;DHT22;25938;48.470;1.486;2022-09-20T21:34:09;19.60;58.40
39427;DHT22;25938;48.470;1.486;2022-09-20T21:36:36;19.50;58.30
39427;DHT22;25938;48.470;1.486;2022-09-20T21:39:03;19.60;58.50
39427;DHT22;25938;48.470;1.486;2022-09-20T21:41:31;19.60;58.40
39427;DHT22;25938;48.470;1.486;2022-09-20T21:44:01;19.50;58.40
39427;DHT22;25938;48.470;1.486;2022-09-20T21:48:55;19.50;58.30
39427;DHT22;25938;48.470;1.486;2022-09-20T21:51:22;19.50;58.30
39427;DHT22;25938;48.470;1.486;2022-09-20T21:53:51;19.50;58.30
39427;DHT22;25938;48.470;1.486;2022-09-20T21:56:17;19.50;58.20
39427;DHT22;25938;48.470;1.486;2022-09-20T21:58:43;19.50;58.20
39427;DHT22;25938;48.470;1.486;2022-09-20T22:01:14;19.50;58.20
39427;DHT22;25938;48.470;1.486;2022-09-20T22:03:41;19.50;58.20
39427;DHT22;25938;48.470;1.486;2022-09-20T22:08:38;19.50;58.10
39427;DHT22;25938;48.470;1.486;2022-09-20T22:11:04;19.40;58.00
39427;DHT22;25938;48.470;1.486;2022-09-20T22:13:30;19.50;58.10
39427;DHT22;25938;48.470;1.486;2022-09-20T22:16:08;19.40;58.00
39427;DHT22;25938;48.470;1.486;2022-09-20T22:18:35;19.40;58.00
39427;DHT22;25938;48.470;1.486;2022-09-20T22:21:06;19.50;58.00